createdAt,value
2023-04-11T00:01:37.682Z,100.00
2023-04-11T00:04:11.937Z,100.00
2023-04-11T00:06:39.186Z,100.00
2023-04-11T00:09:07.655Z,100.00
2023-04-11T00:11:34.668Z,100.00
2023-04-11T00:14:05.855Z,100.00
2023-04-11T00:16:36.103Z,100.00
2023-04-11T00:19:07.686Z,100.00
2023-04-11T00:21:35.944Z,100.00
2023-04-11T00:24:03.138Z,100.00
2023-04-11T00:26:30.634Z,100.00
2023-04-11T00:28:57.977Z,100.00
2023-04-11T00:31:25.815Z,100.00
2023-04-11T00:33:53.509Z,100.00
2023-04-11T00:36:21.165Z,100.00
2023-04-11T00:38:50.539Z,100.00
2023-04-11T00:41:19.895Z,100.00
2023-04-11T00:43:47.613Z,100.00
2023-04-11T00:46:15.241Z,100.00
2023-04-11T00:48:43.301Z,100.00
2023-04-11T00:51:10.986Z,100.00
2023-04-11T00:53:39.303Z,100.00
2023-04-11T00:56:08.922Z,100.00
2023-04-11T00:58:38.344Z,100.00
2023-04-11T01:03:48.674Z,100.00
2023-04-11T01:06:21.040Z,100.00
2023-04-11T01:08:50.481Z,100.00
2023-04-11T01:11:20.421Z,100.00
2023-04-11T01:13:54.343Z,100.00
2023-04-11T01:16:22.054Z,100.00
2023-04-11T01:18:50.153Z,100.00
2023-04-11T01:21:19.934Z,100.00
2023-04-11T01:23:49.169Z,100.00
2023-04-11T01:26:16.628Z,100.00
2023-04-11T01:28:43.990Z,100.00
2023-04-11T01:31:12.306Z,100.00
2023-04-11T01:33:41.590Z,100.00
2023-04-11T01:36:09.466Z,100.00
2023-04-11T01:38:36.736Z,100.00
2023-04-11T01:41:08.501Z,100.00
2023-04-11T01:43:36.093Z,100.00
2023-04-11T01:46:03.792Z,100.00
2023-04-11T01:48:34.663Z,100.00
2023-04-11T01:51:04.296Z,100.00
2023-04-11T01:53:33.993Z,100.00
2023-04-11T01:56:01.364Z,100.00
2023-04-11T01:58:28.820Z,100.00
2023-04-11T02:00:56.324Z,100.00
2023-04-11T02:03:23.669Z,100.00
2023-04-11T02:05:51.192Z,100.00
2023-04-11T02:08:18.769Z,100.00
2023-04-11T02:10:47.139Z,100.00
2023-04-11T02:13:14.784Z,100.00
2023-04-11T02:15:43.228Z,100.00
2023-04-11T02:18:16.402Z,100.00
2023-04-11T02:20:43.726Z,100.00
2023-04-11T02:23:11.412Z,100.00
2023-04-11T02:25:39.271Z,100.00
2023-04-11T02:28:08.081Z,100.00
2023-04-11T02:30:35.583Z,100.00
2023-04-11T02:33:04.677Z,100.00
2023-04-11T02:35:32.002Z,100.00
2023-04-11T02:37:59.734Z,100.00
2023-04-11T02:40:26.774Z,100.00
2023-04-11T02:42:55.380Z,100.00
2023-04-11T02:45:22.991Z,100.00
2023-04-11T02:47:50.396Z,100.00
2023-04-11T02:50:17.795Z,100.00
2023-04-11T02:52:49.637Z,100.00
2023-04-11T02:55:19.654Z,100.00
2023-04-11T02:57:46.777Z,100.00
2023-04-11T03:00:14.317Z,100.00
2023-04-11T03:02:41.963Z,100.00
2023-04-11T03:05:10.034Z,100.00
2023-04-11T03:07:38.712Z,100.00
2023-04-11T03:10:06.621Z,100.00
2023-04-11T03:12:34.031Z,100.00
2023-04-11T03:15:02.667Z,100.00
2023-04-11T03:17:31.035Z,100.00
2023-04-11T03:19:58.475Z,100.00
2023-04-11T03:22:26.255Z,100.00
2023-04-11T03:24:54.445Z,100.00
2023-04-11T03:27:23.897Z,100.00
2023-04-11T03:29:53.007Z,100.00
2023-04-11T03:32:21.517Z,100.00
2023-04-11T03:34:50.839Z,100.00
2023-04-11T03:37:18.939Z,100.00
2023-04-11T03:39:47.449Z,100.00
2023-04-11T03:42:14.863Z,100.00
2023-04-11T03:44:42.457Z,100.00
2023-04-11T03:47:09.829Z,100.00
2023-04-11T03:49:37.347Z,100.00
2023-04-11T03:52:07.716Z,100.00
2023-04-11T03:54:37.904Z,100.00
2023-04-11T03:57:05.258Z,100.00
2023-04-11T03:59:33.692Z,100.00
2023-04-11T04:02:01.161Z,100.00
2023-04-11T04:04:29.345Z,100.00
2023-04-11T04:06:57.182Z,100.00
2023-04-11T04:09:25.664Z,100.00
2023-04-11T04:11:53.309Z,100.00
2023-04-11T04:14:21.526Z,100.00
2023-04-11T04:16:49.491Z,100.00
2023-04-11T04:19:16.982Z,100.00
2023-04-11T04:21:46.160Z,100.00
2023-04-11T04:24:19.043Z,100.00
2023-04-11T04:26:50.326Z,100.00
2023-04-11T04:29:18.652Z,100.00
2023-04-11T04:31:50.943Z,100.00
2023-04-11T04:34:22.182Z,100.00
2023-04-11T04:36:49.757Z,100.00
2023-04-11T04:39:19.508Z,100.00
2023-04-11T04:41:49.946Z,100.00
2023-04-11T04:44:22.774Z,100.00
2023-04-11T04:46:59.380Z,100.00
2023-04-11T04:49:26.872Z,100.00
2023-04-11T04:51:54.387Z,100.00
2023-04-11T04:54:21.897Z,100.00
2023-04-11T04:56:55.868Z,100.00
2023-04-11T04:59:23.391Z,100.00
2023-04-11T05:01:53.984Z,100.00
2023-04-11T05:04:21.665Z,100.00
2023-04-11T05:06:49.141Z,100.00
2023-04-11T05:09:18.272Z,100.00
2023-04-11T05:11:45.949Z,100.00
2023-04-11T05:14:13.389Z,100.00
2023-04-11T05:16:42.580Z,100.00
2023-04-11T05:19:10.102Z,100.00
2023-04-11T05:21:43.276Z,100.00
2023-04-11T05:24:10.917Z,100.00
2023-04-11T05:26:38.316Z,100.00
2023-04-11T05:29:07.080Z,100.00
2023-04-11T05:31:34.213Z,100.00
2023-04-11T05:34:02.788Z,100.00
2023-04-11T05:36:30.402Z,100.00
2023-04-11T05:38:57.584Z,100.00
2023-04-11T05:41:25.269Z,100.00
2023-04-11T05:43:52.595Z,100.00
2023-04-11T05:46:19.920Z,100.00
2023-04-11T05:48:47.507Z,100.00
2023-04-11T05:51:14.899Z,100.00
2023-04-11T05:53:42.365Z,100.00
2023-04-11T05:56:10.054Z,100.00
2023-04-11T05:58:38.065Z,100.00
2023-04-11T06:01:07.721Z,100.00
2023-04-11T06:03:35.613Z,100.00
2023-04-11T06:06:03.189Z,100.00
2023-04-11T06:08:30.669Z,100.00
2023-04-11T06:11:00.334Z,100.00
2023-04-11T06:13:33.790Z,100.00
2023-04-11T06:16:07.805Z,100.00
2023-04-11T06:18:35.446Z,100.00
2023-04-11T06:21:05.008Z,100.00
2023-04-11T06:23:32.375Z,100.00
2023-04-11T06:25:59.799Z,100.00
2023-04-11T06:28:27.492Z,100.00
2023-04-11T06:30:54.750Z,100.00
2023-04-11T06:33:24.196Z,100.00
2023-04-11T06:35:51.845Z,100.00
2023-04-11T06:38:25.241Z,100.00
2023-04-11T06:40:55.037Z,100.00
2023-04-11T06:43:22.704Z,100.00
2023-04-11T06:45:50.234Z,100.00
2023-04-11T06:48:18.478Z,100.00
2023-04-11T06:50:46.312Z,100.00
2023-04-11T06:53:13.541Z,100.00
2023-04-11T06:55:41.072Z,100.00
2023-04-11T06:58:08.467Z,100.00
2023-04-11T07:00:36.472Z,100.00
2023-04-11T07:03:08.223Z,100.00
2023-04-11T07:05:38.291Z,100.00
2023-04-11T07:08:07.590Z,100.00
2023-04-11T07:10:34.996Z,100.00
2023-04-11T07:13:02.397Z,100.00
2023-04-11T07:15:29.577Z,100.00
2023-04-11T07:17:56.805Z,100.00
2023-04-11T07:20:31.388Z,100.00
2023-04-11T07:22:58.520Z,100.00
2023-04-11T07:25:33.973Z,100.00
2023-04-11T07:28:01.524Z,100.00
2023-04-11T07:30:30.386Z,100.00
2023-04-11T07:32:58.023Z,100.00
2023-04-11T07:35:25.596Z,100.00
2023-04-11T07:37:54.085Z,100.00
2023-04-11T07:40:21.410Z,100.00
2023-04-11T07:42:48.827Z,100.00
2023-04-11T07:45:16.369Z,100.00
2023-04-11T07:47:43.743Z,100.00
2023-04-11T07:50:11.676Z,100.00
2023-04-11T07:52:39.218Z,100.00
2023-04-11T07:55:06.979Z,100.00
2023-04-11T07:57:34.148Z,100.00
2023-04-11T08:00:01.564Z,100.00
2023-04-11T08:02:28.922Z,100.00
2023-04-11T08:04:57.472Z,100.00
2023-04-11T08:07:24.937Z,100.00
2023-04-11T08:09:52.443Z,100.00
2023-04-11T08:12:19.916Z,100.00
2023-04-11T08:14:47.390Z,100.00
2023-04-11T08:17:26.983Z,100.00
2023-04-11T08:20:02.068Z,100.00
2023-04-11T08:22:31.033Z,100.00
2023-04-11T08:24:58.433Z,100.00
2023-04-11T08:27:26.278Z,100.00
2023-04-11T08:29:53.514Z,100.00
2023-04-11T08:32:21.153Z,100.00
2023-04-11T08:35:00.802Z,100.00
2023-04-11T08:37:32.032Z,100.00
2023-04-11T08:39:59.428Z,100.00
2023-04-11T08:42:33.300Z,100.00
2023-04-11T08:45:04.388Z,100.00
2023-04-11T08:47:46.435Z,99.52
2023-04-11T08:50:14.788Z,98.68
2023-04-11T08:52:45.188Z,99.62
2023-04-11T08:55:13.158Z,99.06
2023-04-11T08:57:40.585Z,97.29
2023-04-11T09:00:19.486Z,96.79
2023-04-11T09:03:01.614Z,94.58
2023-04-11T09:05:30.105Z,95.26
2023-04-11T09:08:02.556Z,93.94
2023-04-11T09:10:29.718Z,93.80
2023-04-11T09:12:59.625Z,94.59
2023-04-11T09:15:32.171Z,92.55
2023-04-11T09:18:01.093Z,91.91
2023-04-11T09:20:32.063Z,92.59
2023-04-11T09:22:59.362Z,90.76
2023-04-11T09:25:26.910Z,90.11
2023-04-11T09:28:11.228Z,89.77
2023-04-11T09:30:38.687Z,87.92
2023-04-11T09:33:30.314Z,87.39
2023-04-11T09:35:58.572Z,87.35
2023-04-11T09:38:44.508Z,83.96
2023-04-11T09:41:12.949Z,84.15
2023-04-11T09:43:56.092Z,83.75
2023-04-11T09:46:24.230Z,82.59
2023-04-11T09:48:53.130Z,82.60
2023-04-11T09:51:35.267Z,83.83
2023-04-11T09:54:06.271Z,82.01
2023-04-11T09:56:36.792Z,82.81
2023-04-11T09:59:05.748Z,81.96
2023-04-11T10:01:39.672Z,82.08
2023-04-11T10:04:07.107Z,79.84
2023-04-11T10:06:48.467Z,80.07
2023-04-11T10:09:17.266Z,79.42
2023-04-11T10:11:46.374Z,79.65
2023-04-11T10:14:38.703Z,79.32
2023-04-11T10:17:24.298Z,78.83
2023-04-11T10:19:58.925Z,78.94
2023-04-11T10:22:41.918Z,78.84
2023-04-11T10:25:18.944Z,77.70
2023-04-11T10:27:53.968Z,77.60
2023-04-11T10:30:41.587Z,77.84
2023-04-11T10:33:17.822Z,76.34
2023-04-11T10:36:10.858Z,76.89
2023-04-11T10:38:48.779Z,77.04
2023-04-11T10:41:25.844Z,74.80
2023-04-11T10:44:05.111Z,73.44
2023-04-11T10:46:49.881Z,73.82
2023-04-11T10:49:40.775Z,73.25
2023-04-11T10:52:24.954Z,71.86
2023-04-11T10:54:54.318Z,71.47
2023-04-11T10:57:23.262Z,71.02
2023-04-11T10:59:50.857Z,70.14
2023-04-11T11:02:20.321Z,69.06
2023-04-11T11:04:50.226Z,65.86
2023-04-11T11:07:17.790Z,65.99
2023-04-11T11:09:52.986Z,62.93
2023-04-11T11:12:20.660Z,58.06
2023-04-11T11:14:48.126Z,58.86
2023-04-11T11:17:17.591Z,58.10
2023-04-11T11:19:48.119Z,55.91
2023-04-11T11:22:26.272Z,55.83
2023-04-11T11:24:53.822Z,54.67
2023-04-11T11:27:24.336Z,55.36
2023-04-11T11:29:53.326Z,56.16
2023-04-11T11:32:30.157Z,56.61
2023-04-11T11:34:59.155Z,55.71
2023-04-11T11:37:26.446Z,55.31
2023-04-11T11:39:53.989Z,58.82
2023-04-11T11:42:21.476Z,57.26
2023-04-11T11:44:48.787Z,56.89
2023-04-11T11:47:18.299Z,54.37
2023-04-11T11:49:46.661Z,54.23
2023-04-11T11:52:41.011Z,54.17
2023-04-11T11:55:29.796Z,54.15
2023-04-11T11:58:02.578Z,56.44
2023-04-11T12:00:32.824Z,55.80
2023-04-11T12:03:01.195Z,55.60
2023-04-11T12:05:32.373Z,55.78
2023-04-11T12:08:08.451Z,56.36
2023-04-11T12:10:42.706Z,57.26
2023-04-11T12:13:20.835Z,57.05
2023-04-11T12:15:56.469Z,56.39
2023-04-11T12:18:26.634Z,58.47
2023-04-11T12:20:54.936Z,60.24
2023-04-11T12:23:24.090Z,59.86
2023-04-11T12:25:51.775Z,59.25
2023-04-11T12:28:19.446Z,60.96
2023-04-11T12:30:46.990Z,61.50
2023-04-11T12:33:15.294Z,61.75
2023-04-11T12:35:42.799Z,61.36
2023-04-11T12:38:11.922Z,61.43
2023-04-11T12:41:13.967Z,62.55
2023-04-11T12:43:43.808Z,64.70
2023-04-11T12:46:12.032Z,65.47
2023-04-11T12:48:39.535Z,68.17
2023-04-11T12:51:07.038Z,70.36
2023-04-11T12:53:34.360Z,72.42
2023-04-11T12:56:02.007Z,73.38
2023-04-11T12:58:35.787Z,77.58
2023-04-11T13:01:02.729Z,83.33
2023-04-11T13:03:32.122Z,86.33
2023-04-11T13:05:59.364Z,89.55
2023-04-11T13:08:27.632Z,92.92
2023-04-11T13:10:56.033Z,93.52
2023-04-11T13:13:25.084Z,98.33
2023-04-11T13:15:52.432Z,100.00
2023-04-11T13:18:19.819Z,100.00
2023-04-11T13:20:47.231Z,100.00
2023-04-11T13:23:16.643Z,100.00
2023-04-11T13:25:45.194Z,100.00
2023-04-11T13:28:12.878Z,100.00
2023-04-11T13:30:41.510Z,100.00
2023-04-11T13:33:09.097Z,100.00
2023-04-11T13:35:36.682Z,100.00
2023-04-11T13:38:05.488Z,100.00
2023-04-11T13:40:34.008Z,100.00
2023-04-11T13:43:03.769Z,100.00
2023-04-11T13:46:00.716Z,100.00
2023-04-11T13:48:28.140Z,100.00
2023-04-11T13:50:57.895Z,100.00
2023-04-11T13:53:26.273Z,100.00
2023-04-11T13:55:53.504Z,100.00
2023-04-11T13:58:21.374Z,100.00
2023-04-11T14:00:50.725Z,100.00
2023-04-11T14:03:18.940Z,100.00
2023-04-11T14:05:53.818Z,100.00
2023-04-11T14:08:22.151Z,100.00
2023-04-11T14:10:49.472Z,100.00
2023-04-11T14:13:17.071Z,100.00
2023-04-11T14:15:45.084Z,100.00
2023-04-11T14:18:13.552Z,100.00
2023-04-11T14:20:41.217Z,100.00
2023-04-11T14:23:11.352Z,100.00
2023-04-11T14:25:39.465Z,100.00
2023-04-11T14:28:08.397Z,100.00
2023-04-11T14:30:36.489Z,100.00
2023-04-11T14:33:04.020Z,100.00
2023-04-11T14:35:31.868Z,100.00
2023-04-11T14:37:59.433Z,100.00
2023-04-11T14:40:32.871Z,100.00
2023-04-11T14:43:00.548Z,100.00
2023-04-11T14:45:27.820Z,100.00
2023-04-11T14:47:56.925Z,100.00
2023-04-11T14:50:24.772Z,100.00
2023-04-11T14:52:55.305Z,100.00
2023-04-11T14:55:23.063Z,100.00
2023-04-11T14:57:53.799Z,100.00
2023-04-11T15:00:27.493Z,100.00
2023-04-11T15:02:56.562Z,100.00
2023-04-11T15:05:24.588Z,100.00
2023-04-11T15:07:53.417Z,100.00
2023-04-11T15:10:23.558Z,100.00
2023-04-11T15:12:51.923Z,100.00
2023-04-11T15:15:19.622Z,100.00
2023-04-11T15:18:11.085Z,100.00
2023-04-11T15:20:40.611Z,100.00
2023-04-11T15:23:08.067Z,100.00
2023-04-11T15:25:36.575Z,100.00
2023-04-11T15:28:06.258Z,100.00
2023-04-11T15:30:35.108Z,100.00
2023-04-11T15:33:03.099Z,100.00
2023-04-11T15:35:30.703Z,100.00
2023-04-11T15:38:00.762Z,100.00
2023-04-11T15:40:28.212Z,100.00
2023-04-11T15:42:57.491Z,100.00
2023-04-11T15:45:24.891Z,100.00
2023-04-11T15:47:52.428Z,100.00
2023-04-11T15:50:28.980Z,100.00
2023-04-11T15:52:57.859Z,100.00
2023-04-11T15:55:25.592Z,100.00
2023-04-11T15:57:53.075Z,100.00
2023-04-11T16:00:22.769Z,100.00
2023-04-11T16:02:50.722Z,100.00
2023-04-11T16:05:21.241Z,100.00
2023-04-11T16:07:49.058Z,100.00
2023-04-11T16:10:16.471Z,100.00
2023-04-11T16:12:50.255Z,100.00
2023-04-11T16:15:18.225Z,100.00
2023-04-11T16:17:46.778Z,100.00
2023-04-11T16:20:18.944Z,100.00
2023-04-11T16:22:47.550Z,100.00
2023-04-11T16:25:21.681Z,100.00
2023-04-11T16:27:51.656Z,100.00
2023-04-11T16:30:19.358Z,100.00
2023-04-11T16:32:48.779Z,100.00
2023-04-11T16:35:16.026Z,100.00
2023-04-11T16:37:44.515Z,100.00
2023-04-11T16:40:12.542Z,100.00
2023-04-11T16:42:40.361Z,100.00
2023-04-11T16:45:11.192Z,100.00
2023-04-11T16:47:39.585Z,100.00
2023-04-11T16:50:08.430Z,100.00
2023-04-11T16:52:35.802Z,100.00
2023-04-11T16:55:03.865Z,100.00
2023-04-11T16:57:38.994Z,100.00
2023-04-11T17:00:20.031Z,100.00
2023-04-11T17:02:47.408Z,100.00
2023-04-11T17:05:14.898Z,100.00
2023-04-11T17:07:48.416Z,100.00
2023-04-11T17:10:16.163Z,100.00
2023-04-11T17:12:43.414Z,100.00
2023-04-11T17:15:11.498Z,100.00
2023-04-11T17:17:45.089Z,100.00
2023-04-11T17:20:12.546Z,100.00
2023-04-11T17:22:41.752Z,100.00
2023-04-11T17:25:10.434Z,100.00
2023-04-11T17:27:41.194Z,100.00
2023-04-11T17:30:12.546Z,100.00
2023-04-11T17:32:41.152Z,100.00
2023-04-11T17:35:08.739Z,100.00
2023-04-11T17:37:37.922Z,100.00
2023-04-11T17:40:12.111Z,100.00
2023-04-11T17:42:42.005Z,100.00
2023-04-11T17:45:17.848Z,100.00
2023-04-11T17:47:52.468Z,100.00
2023-04-11T17:50:20.490Z,100.00
2023-04-11T17:52:49.955Z,100.00
2023-04-11T17:55:19.283Z,100.00
2023-04-11T17:57:50.550Z,100.00
2023-04-11T18:00:23.864Z,100.00
2023-04-11T18:02:54.908Z,100.00
2023-04-11T18:05:25.190Z,100.00
2023-04-11T18:07:57.704Z,100.00
2023-04-11T18:10:31.820Z,100.00
2023-04-11T18:12:59.564Z,100.00
2023-04-11T18:15:28.341Z,100.00
2023-04-11T18:17:56.934Z,100.00
2023-04-11T18:20:24.245Z,100.00
2023-04-11T18:22:55.048Z,100.00
2023-04-11T18:25:24.132Z,100.00
2023-04-11T18:27:52.181Z,100.00
2023-04-11T18:30:19.539Z,100.00
2023-04-11T18:32:49.745Z,100.00
2023-04-11T18:35:17.617Z,100.00
2023-04-11T18:37:45.240Z,100.00
2023-04-11T18:40:14.499Z,100.00
2023-04-11T18:42:49.250Z,100.00
2023-04-11T18:45:23.720Z,100.00
2023-04-11T18:47:51.734Z,100.00
2023-04-11T18:50:27.613Z,100.00
2023-04-11T18:52:57.475Z,100.00
2023-04-11T18:55:29.892Z,100.00
2023-04-11T18:58:00.089Z,100.00
2023-04-11T19:00:35.752Z,100.00
2023-04-11T19:03:03.732Z,100.00
2023-04-11T19:05:32.373Z,100.00
2023-04-11T19:08:00.950Z,100.00
2023-04-11T19:10:28.707Z,100.00
2023-04-11T19:12:56.408Z,100.00
2023-04-11T19:15:26.129Z,100.00
2023-04-11T19:17:55.454Z,100.00
2023-04-11T19:20:27.399Z,100.00
2023-04-11T19:22:55.925Z,100.00
2023-04-11T19:25:24.071Z,100.00
2023-04-11T19:27:53.468Z,100.00
2023-04-11T19:30:23.682Z,100.00
2023-04-11T19:32:52.470Z,100.00
2023-04-11T19:35:28.415Z,100.00
2023-04-11T19:38:00.488Z,100.00
2023-04-11T19:40:31.038Z,100.00
2023-04-11T19:43:02.552Z,100.00
2023-04-11T19:45:32.509Z,100.00
2023-04-11T19:48:03.327Z,100.00
2023-04-11T19:50:34.958Z,100.00
2023-04-11T19:53:04.135Z,100.00
2023-04-11T19:55:32.253Z,100.00
2023-04-11T19:58:00.698Z,100.00
2023-04-11T20:00:35.394Z,100.00
2023-04-11T20:03:10.393Z,100.00
2023-04-11T20:05:38.946Z,100.00
2023-04-11T20:08:09.117Z,100.00
2023-04-11T20:10:45.639Z,100.00
2023-04-11T20:13:14.275Z,100.00
2023-04-11T20:15:42.253Z,100.00
2023-04-11T20:18:11.543Z,100.00
2023-04-11T20:20:41.280Z,100.00
2023-04-11T20:23:16.885Z,100.00
2023-04-11T20:25:45.093Z,100.00
2023-04-11T20:28:13.135Z,100.00
2023-04-11T20:30:41.647Z,100.00
2023-04-11T20:33:09.492Z,100.00
2023-04-11T20:35:38.590Z,100.00
2023-04-11T20:38:06.307Z,100.00
2023-04-11T20:40:34.283Z,100.00
2023-04-11T20:43:08.755Z,100.00
2023-04-11T20:45:40.104Z,100.00
2023-04-11T20:48:09.059Z,100.00
2023-04-11T20:50:37.938Z,100.00
2023-04-11T20:53:05.603Z,100.00
2023-04-11T20:55:33.700Z,100.00
2023-04-11T20:58:01.600Z,100.00
2023-04-11T21:00:28.710Z,100.00
2023-04-11T21:02:56.065Z,100.00
2023-04-11T21:05:25.888Z,100.00
2023-04-11T21:07:55.888Z,100.00
2023-04-11T21:10:30.334Z,100.00
2023-04-11T21:12:58.913Z,100.00
2023-04-11T21:15:26.523Z,100.00
2023-04-11T21:17:54.786Z,100.00
2023-04-11T21:20:22.807Z,100.00
2023-04-11T21:22:55.038Z,100.00
2023-04-11T21:25:24.185Z,100.00
2023-04-11T21:27:58.879Z,100.00
2023-04-11T21:30:26.308Z,100.00
2023-04-11T21:32:53.903Z,100.00
2023-04-11T21:35:22.422Z,100.00
2023-04-11T21:37:51.023Z,100.00
2023-04-11T21:40:20.262Z,100.00
2023-04-11T21:42:47.724Z,100.00
2023-04-11T21:45:15.861Z,100.00
2023-04-11T21:47:44.294Z,100.00
2023-04-11T21:50:11.828Z,100.00
2023-04-11T21:52:39.082Z,100.00
2023-04-11T21:55:09.084Z,100.00
2023-04-11T21:57:36.573Z,100.00
2023-04-11T22:00:05.439Z,100.00
2023-04-11T22:02:32.628Z,100.00
2023-04-11T22:05:06.296Z,100.00
2023-04-11T22:07:46.746Z,100.00
2023-04-11T22:10:14.348Z,100.00
2023-04-11T22:12:42.249Z,100.00
2023-04-11T22:15:12.865Z,100.00
2023-04-11T22:17:50.734Z,100.00
2023-04-11T22:20:18.853Z,100.00
2023-04-11T22:22:45.920Z,100.00
2023-04-11T22:25:15.046Z,100.00
2023-04-11T22:27:42.437Z,100.00
2023-04-11T22:30:11.410Z,100.00
2023-04-11T22:32:39.916Z,100.00
2023-04-11T22:35:09.604Z,100.00
2023-04-11T22:37:36.791Z,100.00
2023-04-11T22:40:06.233Z,100.00
2023-04-11T22:42:34.207Z,100.00
2023-04-11T22:45:01.700Z,100.00
2023-04-11T22:47:29.576Z,100.00
2023-04-11T22:49:58.113Z,100.00
2023-04-11T22:52:26.126Z,100.00
2023-04-11T22:54:55.202Z,100.00
2023-04-11T22:57:22.617Z,100.00
2023-04-11T22:59:50.171Z,100.00
2023-04-11T23:02:17.631Z,100.00
2023-04-11T23:04:45.405Z,100.00
2023-04-11T23:07:12.921Z,100.00
2023-04-11T23:09:40.418Z,100.00
2023-04-11T23:12:08.589Z,100.00
2023-04-11T23:14:36.801Z,100.00
2023-04-11T23:17:04.413Z,100.00
2023-04-11T23:19:34.430Z,100.00
2023-04-11T23:22:01.735Z,100.00
2023-04-11T23:24:29.312Z,100.00
2023-04-11T23:26:57.388Z,100.00
2023-04-11T23:29:24.851Z,100.00
2023-04-11T23:31:52.180Z,100.00
2023-04-11T23:34:21.274Z,100.00
2023-04-11T23:36:48.598Z,100.00
2023-04-11T23:39:16.897Z,100.00
2023-04-11T23:41:52.819Z,100.00
2023-04-11T23:44:20.127Z,100.00
2023-04-11T23:46:47.622Z,100.00
2023-04-11T23:49:15.091Z,100.00
2023-04-11T23:51:43.529Z,100.00
2023-04-11T23:54:11.045Z,100.00
2023-04-11T23:56:38.483Z,100.00
2023-04-11T23:59:06.052Z,100.00
